createdAt,value
2018-10-06T00:00:15.117Z,64.87
2018-10-06T00:01:15.134Z,64.21
2018-10-06T00:02:15.151Z,64.69
2018-10-06T00:03:15.172Z,65.26
2018-10-06T00:04:15.182Z,65.92
2018-10-06T00:05:15.226Z,65.83
2018-10-06T00:06:15.214Z,65.39
2018-10-06T00:07:15.230Z,65.55
2018-10-06T00:08:15.245Z,65.55
2018-10-06T00:09:15.259Z,65.16
2018-10-06T00:10:15.282Z,65.07
2018-10-06T00:11:15.294Z,64.81
2018-10-06T00:12:15.308Z,64.69
2018-10-06T00:13:15.324Z,64.69
2018-10-06T00:14:15.342Z,65.55
2018-10-06T00:15:15.359Z,65.10
2018-10-06T00:16:15.375Z,65.55
2018-10-06T00:17:15.392Z,65.07
2018-10-06T00:18:15.409Z,65.45
2018-10-06T00:19:15.424Z,65.45
2018-10-06T00:20:15.442Z,65.64
2018-10-06T00:21:15.453Z,65.07
2018-10-06T00:22:15.472Z,65.36
2018-10-06T00:23:15.486Z,65.45
2018-10-06T00:24:15.502Z,65.55
2018-10-06T00:25:15.519Z,66.40
2018-10-06T00:26:15.536Z,65.36
2018-10-06T00:27:15.551Z,65.26
2018-10-06T00:28:15.568Z,64.69
2018-10-06T00:29:15.588Z,65.16
2018-10-06T00:30:15.598Z,64.59
2018-10-06T00:31:15.618Z,64.69
2018-10-06T00:32:15.632Z,64.78
2018-10-06T00:33:15.648Z,64.31
2018-10-06T00:34:15.663Z,64.02
2018-10-06T00:35:15.689Z,64.02
2018-10-06T00:36:15.695Z,63.92
2018-10-06T00:37:15.710Z,64.21
2018-10-06T00:38:15.728Z,64.02
2018-10-06T00:39:15.744Z,63.92
2018-10-06T00:40:15.766Z,63.83
2018-10-06T00:41:15.780Z,64.02
2018-10-06T00:42:15.793Z,64.21
2018-10-06T00:43:15.809Z,63.92
2018-10-06T00:44:15.822Z,63.64
2018-10-06T00:45:15.837Z,63.17
2018-10-06T00:46:15.856Z,63.07
2018-10-06T00:47:15.921Z,63.26
2018-10-06T00:48:15.885Z,63.45
2018-10-06T00:49:15.903Z,63.45
2018-10-06T00:50:15.918Z,62.97
2018-10-06T00:51:15.935Z,63.07
2018-10-06T00:52:15.951Z,63.07
2018-10-06T00:53:15.967Z,63.54
2018-10-06T00:54:15.985Z,63.64
2018-10-06T00:55:16.002Z,63.54
2018-10-06T00:56:16.016Z,63.35
2018-10-06T00:57:16.030Z,63.17
2018-10-06T00:58:16.044Z,63.35
2018-10-06T00:59:16.063Z,63.73
2018-10-06T01:00:16.077Z,63.64
2018-10-06T01:01:16.093Z,63.26
2018-10-06T01:02:16.114Z,63.92
2018-10-06T01:03:16.125Z,63.54
2018-10-06T01:04:16.141Z,63.73
2018-10-06T01:05:16.159Z,63.26
2018-10-06T01:06:16.172Z,63.26
2018-10-06T01:07:16.190Z,63.45
2018-10-06T01:08:16.205Z,63.64
2018-10-06T01:09:16.219Z,63.54
2018-10-06T01:10:16.239Z,63.73
2018-10-06T01:11:16.255Z,63.73
2018-10-06T01:12:16.273Z,63.35
2018-10-06T01:13:16.284Z,63.45
2018-10-06T01:14:16.298Z,63.54
2018-10-06T01:15:16.316Z,63.73
2018-10-06T01:16:16.331Z,63.17
2018-10-06T01:17:16.347Z,62.97
2018-10-06T01:18:16.365Z,63.26
2018-10-06T01:19:16.379Z,63.07
2018-10-06T01:20:16.392Z,63.07
2018-10-06T01:21:16.412Z,63.73
2018-10-06T01:22:16.425Z,63.73
2018-10-06T01:23:16.443Z,63.92
2018-10-06T01:24:16.461Z,64.31
2018-10-06T01:25:16.476Z,64.21
2018-10-06T01:26:16.489Z,64.31
2018-10-06T01:27:16.507Z,64.37
2018-10-06T01:28:16.523Z,64.31
2018-10-06T01:29:16.536Z,64.12
2018-10-06T01:30:16.551Z,63.83
2018-10-06T01:31:16.567Z,63.51
2018-10-06T01:32:16.588Z,63.13
2018-10-06T01:33:16.604Z,63.35
2018-10-06T01:34:16.615Z,63.54
2018-10-06T01:35:16.631Z,63.92
2018-10-06T01:36:16.645Z,63.73
2018-10-06T01:37:16.663Z,63.73
2018-10-06T01:38:16.678Z,63.45
2018-10-06T01:39:16.694Z,63.17
2018-10-06T01:40:16.708Z,63.17
2018-10-06T01:41:16.724Z,63.17
2018-10-06T01:42:16.742Z,62.97
2018-10-06T01:43:16.758Z,62.97
2018-10-06T01:44:16.771Z,63.07
2018-10-06T01:45:16.791Z,63.17
2018-10-06T01:46:16.804Z,63.35
2018-10-06T01:47:16.819Z,63.07
2018-10-06T01:48:16.835Z,63.07
2018-10-06T01:49:16.854Z,63.17
2018-10-06T01:50:16.868Z,63.07
2018-10-06T01:51:16.883Z,63.17
2018-10-06T01:52:16.899Z,62.97
2018-10-06T01:53:16.913Z,62.97
2018-10-06T01:54:16.927Z,63.07
2018-10-06T01:55:16.946Z,63.17
2018-10-06T01:56:16.961Z,63.07
2018-10-06T01:57:16.977Z,63.35
2018-10-06T01:58:16.992Z,63.54
2018-10-06T01:59:17.008Z,62.97
2018-10-06T02:00:17.023Z,63.07
2018-10-06T02:01:17.037Z,63.45
2018-10-06T02:02:17.058Z,63.64
2018-10-06T02:03:17.072Z,63.73
2018-10-06T02:04:17.092Z,63.64
2018-10-06T02:05:17.102Z,63.26
2018-10-06T02:06:17.119Z,63.07
2018-10-06T02:07:17.135Z,63.07
2018-10-06T02:08:17.151Z,63.35
2018-10-06T02:09:17.167Z,63.07
2018-10-06T02:10:17.184Z,63.26
2018-10-06T02:11:17.198Z,63.64
2018-10-06T02:12:17.218Z,63.64
2018-10-06T02:13:17.230Z,62.97
2018-10-06T02:14:17.246Z,61.83
2018-10-06T02:15:17.263Z,62.21
2018-10-06T02:16:17.280Z,62.21
2018-10-06T02:17:17.293Z,62.97
2018-10-06T02:18:17.310Z,63.07
2018-10-06T02:19:17.327Z,63.45
2018-10-06T02:20:17.339Z,63.73
2018-10-06T02:21:17.358Z,63.64
2018-10-06T02:22:17.373Z,62.97
2018-10-06T02:23:17.387Z,63.73
2018-10-06T02:24:17.404Z,63.54
2018-10-06T02:25:17.420Z,63.92
2018-10-06T02:26:17.436Z,63.45
2018-10-06T02:27:17.453Z,64.02
2018-10-06T02:28:17.468Z,64.31
2018-10-06T02:29:17.486Z,64.78
2018-10-06T02:30:17.619Z,65.16
2018-10-06T02:31:17.516Z,64.59
2018-10-06T02:32:17.536Z,65.55
2018-10-06T02:33:17.549Z,65.36
2018-10-06T02:34:17.566Z,64.59
2018-10-06T02:35:17.579Z,64.12
2018-10-06T02:36:17.595Z,64.31
2018-10-06T02:37:17.613Z,64.02
2018-10-06T02:38:17.631Z,63.54
2018-10-06T02:39:17.646Z,63.35
2018-10-06T02:40:17.660Z,64.02
2018-10-06T02:41:17.676Z,64.78
2018-10-06T02:42:17.693Z,64.87
2018-10-06T02:43:17.712Z,64.69
2018-10-06T02:44:17.724Z,65.16
2018-10-06T02:45:17.742Z,65.16
2018-10-06T02:46:17.758Z,64.78
2018-10-06T02:47:17.774Z,65.07
2018-10-06T02:48:17.790Z,64.69
2018-10-06T02:49:17.804Z,64.59
2018-10-06T02:50:17.821Z,64.69
2018-10-06T02:51:17.835Z,64.97
2018-10-06T02:52:17.851Z,65.07
2018-10-06T02:53:17.869Z,65.36
2018-10-06T02:54:17.882Z,65.45
2018-10-06T02:55:17.899Z,65.64
2018-10-06T02:56:17.920Z,65.73
2018-10-06T02:57:17.931Z,65.92
2018-10-06T02:58:17.947Z,65.55
2018-10-06T02:59:17.966Z,65.45
2018-10-06T03:00:17.982Z,65.55
2018-10-06T03:01:17.995Z,65.55
2018-10-06T03:02:18.014Z,65.07
2018-10-06T03:03:18.027Z,64.59
2018-10-06T03:04:18.043Z,64.97
2018-10-06T03:05:18.057Z,65.55
2018-10-06T03:06:18.075Z,65.45
2018-10-06T03:07:18.091Z,65.36
2018-10-06T03:08:18.105Z,65.16
2018-10-06T03:09:18.122Z,65.26
2018-10-06T03:10:18.140Z,64.78
2018-10-06T03:11:18.153Z,64.69
2018-10-06T03:12:18.169Z,65.07
2018-10-06T03:13:18.193Z,64.78
2018-10-06T03:14:18.208Z,65.45
2018-10-06T03:15:18.218Z,65.16
2018-10-06T03:16:18.234Z,64.31
2018-10-06T03:17:18.257Z,64.31
2018-10-06T03:18:18.267Z,64.21
2018-10-06T03:19:18.283Z,64.40
2018-10-06T03:20:18.300Z,64.31
2018-10-06T03:21:18.313Z,64.69
2018-10-06T03:22:18.331Z,64.69
2018-10-06T03:23:18.348Z,64.69
2018-10-06T03:24:18.362Z,64.21
2018-10-06T03:25:18.389Z,64.21
2018-10-06T03:26:18.396Z,64.40
2018-10-06T03:27:18.411Z,64.21
2018-10-06T03:28:18.426Z,63.73
2018-10-06T03:29:18.448Z,63.83
2018-10-06T03:30:18.456Z,64.02
2018-10-06T03:31:18.477Z,63.83
2018-10-06T03:32:18.489Z,64.40
2018-10-06T03:33:18.506Z,63.64
2018-10-06T03:34:18.520Z,63.35
2018-10-06T03:35:18.536Z,63.26
2018-10-06T03:36:18.551Z,63.07
2018-10-06T03:37:18.569Z,62.97
2018-10-06T03:38:18.584Z,63.26
2018-10-06T03:39:18.606Z,63.73
2018-10-06T03:40:18.613Z,64.02
2018-10-06T03:41:18.634Z,64.50
2018-10-06T03:42:18.651Z,64.40
2018-10-06T03:43:18.664Z,64.40
2018-10-06T03:44:18.678Z,64.21
2018-10-06T03:45:18.695Z,64.21
2018-10-06T03:46:18.711Z,64.12
2018-10-06T03:47:18.729Z,63.92
2018-10-06T03:48:18.743Z,63.54
2018-10-06T03:49:18.759Z,63.35
2018-10-06T03:50:18.776Z,63.73
2018-10-06T03:51:18.792Z,63.64
2018-10-06T03:52:18.808Z,64.02
2018-10-06T03:53:18.821Z,63.92
2018-10-06T03:54:18.837Z,64.12
2018-10-06T03:55:18.855Z,64.31
2018-10-06T03:56:18.875Z,64.21
2018-10-06T03:57:18.886Z,63.92
2018-10-06T03:58:18.900Z,63.92
2018-10-06T03:59:18.920Z,64.02
2018-10-06T04:00:18.933Z,64.12
2018-10-06T04:01:18.949Z,64.02
2018-10-06T04:02:18.965Z,64.02
2018-10-06T04:03:18.980Z,64.40
2018-10-06T04:04:18.998Z,63.83
2018-10-06T04:05:19.015Z,64.50
2018-10-06T04:06:19.034Z,64.59
2018-10-06T04:07:19.045Z,64.21
2018-10-06T04:08:19.060Z,64.12
2018-10-06T04:09:19.078Z,64.12
2018-10-06T04:10:19.093Z,64.31
2018-10-06T04:11:19.108Z,64.21
2018-10-06T04:12:19.134Z,64.21
2018-10-06T04:13:19.141Z,64.12
2018-10-06T04:14:19.155Z,64.02
2018-10-06T04:15:19.175Z,64.31
2018-10-06T04:16:19.186Z,63.64
2018-10-06T04:17:19.205Z,63.54
2018-10-06T04:18:19.220Z,62.97
2018-10-06T04:19:19.238Z,63.26
2018-10-06T04:20:19.251Z,63.07
2018-10-06T04:21:19.266Z,63.17
2018-10-06T04:22:19.283Z,62.97
2018-10-06T04:23:19.299Z,63.54
2018-10-06T04:24:19.313Z,63.83
2018-10-06T04:25:19.331Z,64.21
2018-10-06T04:26:19.347Z,64.59
2018-10-06T04:27:19.365Z,64.50
2018-10-06T04:28:19.406Z,64.78
2018-10-06T04:29:19.394Z,64.75
2018-10-06T04:30:19.412Z,64.12
2018-10-06T04:31:19.427Z,64.31
2018-10-06T04:32:19.442Z,64.50
2018-10-06T04:33:19.458Z,64.31
2018-10-06T04:34:19.483Z,64.12
2018-10-06T04:35:19.492Z,64.28
2018-10-06T04:36:19.504Z,64.02
2018-10-06T04:37:19.522Z,64.40
2018-10-06T04:38:19.537Z,64.31
2018-10-06T04:39:19.553Z,64.02
2018-10-06T04:40:19.567Z,63.35
2018-10-06T04:41:19.591Z,64.08
2018-10-06T04:42:19.600Z,64.37
2018-10-06T04:43:19.616Z,64.08
2018-10-06T04:44:19.633Z,64.02
2018-10-06T04:45:19.646Z,64.12
2018-10-06T04:46:19.662Z,64.78
2018-10-06T04:47:19.681Z,64.78
2018-10-06T04:48:19.706Z,64.47
2018-10-06T04:49:19.710Z,64.21
2018-10-06T04:50:19.728Z,64.97
2018-10-06T04:51:19.743Z,64.65
2018-10-06T04:52:19.763Z,64.97
2018-10-06T04:53:19.842Z,64.50
2018-10-06T04:54:19.792Z,65.07
2018-10-06T04:55:19.808Z,65.16
2018-10-06T04:56:19.819Z,65.55
2018-10-06T04:57:19.836Z,65.07
2018-10-06T04:58:19.856Z,65.26
2018-10-06T04:59:19.868Z,64.78
2018-10-06T05:00:19.884Z,65.07
2018-10-06T05:01:19.904Z,65.55
2018-10-06T05:02:19.918Z,65.16
2018-10-06T05:03:20.005Z,65.26
2018-10-06T05:04:19.947Z,65.32
2018-10-06T05:05:19.967Z,65.26
2018-10-06T05:06:19.977Z,65.55
2018-10-06T05:07:19.995Z,65.26
2018-10-06T05:08:20.007Z,65.64
2018-10-06T05:09:20.023Z,65.16
2018-10-06T05:10:20.043Z,65.64
2018-10-06T05:11:20.059Z,65.55
2018-10-06T05:12:20.075Z,65.26
2018-10-06T05:13:20.088Z,65.45
2018-10-06T05:14:20.105Z,65.64
2018-10-06T05:15:20.130Z,64.97
2018-10-06T05:16:20.134Z,64.78
2018-10-06T05:17:20.151Z,65.07
2018-10-06T05:18:20.164Z,65.45
2018-10-06T05:19:20.182Z,65.55
2018-10-06T05:20:20.199Z,65.55
2018-10-06T05:21:20.214Z,65.92
2018-10-06T05:22:20.231Z,66.31
2018-10-06T05:23:20.317Z,65.83
2018-10-06T05:24:20.264Z,65.92
2018-10-06T05:25:20.276Z,66.02
2018-10-06T05:26:20.291Z,66.97
2018-10-06T05:27:20.308Z,67.16
2018-10-06T05:28:20.324Z,66.78
2018-10-06T05:29:20.338Z,66.50
2018-10-06T05:30:20.360Z,66.11
2018-10-06T05:31:20.378Z,65.92
2018-10-06T05:32:20.388Z,65.73
2018-10-06T05:33:20.401Z,66.02
2018-10-06T05:34:20.418Z,66.31
2018-10-06T05:35:20.433Z,66.40
2018-10-06T05:36:20.449Z,66.50
2018-10-06T05:37:20.465Z,66.21
2018-10-06T05:38:20.485Z,66.02
2018-10-06T05:39:20.500Z,65.73
2018-10-06T05:40:20.511Z,66.40
2018-10-06T05:41:20.529Z,66.31
2018-10-06T05:42:20.543Z,66.50
2018-10-06T05:43:20.561Z,65.26
2018-10-06T05:44:20.576Z,64.31
2018-10-06T05:45:20.593Z,64.31
2018-10-06T05:46:20.651Z,65.16
2018-10-06T05:47:20.620Z,65.36
2018-10-06T05:48:20.637Z,65.26
2018-10-06T05:49:20.652Z,65.16
2018-10-06T05:50:20.673Z,64.59
2018-10-06T05:51:20.684Z,64.69
2018-10-06T05:52:20.701Z,65.16
2018-10-06T05:53:20.715Z,65.16
2018-10-06T05:54:20.731Z,65.07
2018-10-06T05:55:20.747Z,64.78
2018-10-06T05:56:20.763Z,65.45
2018-10-06T05:57:20.780Z,66.02
2018-10-06T05:58:20.798Z,66.02
2018-10-06T05:59:20.810Z,66.11
2018-10-06T06:00:20.824Z,66.02
2018-10-06T06:01:20.842Z,65.83
2018-10-06T06:02:20.856Z,65.16
2018-10-06T06:03:20.874Z,66.11
2018-10-06T06:04:20.887Z,65.83
2018-10-06T06:05:20.905Z,65.83
2018-10-06T06:06:20.921Z,66.31
2018-10-06T06:07:20.938Z,66.97
2018-10-06T06:08:20.960Z,66.59
2018-10-06T06:09:21.046Z,66.78
2018-10-06T06:10:20.983Z,66.02
2018-10-06T06:11:21.001Z,65.45
2018-10-06T06:12:21.015Z,65.55
2018-10-06T06:13:21.030Z,65.83
2018-10-06T06:14:21.048Z,66.31
2018-10-06T06:15:21.062Z,66.31
2018-10-06T06:16:21.079Z,66.21
2018-10-06T06:17:21.095Z,66.21
2018-10-06T06:18:21.111Z,65.07
2018-10-06T06:19:21.125Z,64.50
2018-10-06T06:20:21.140Z,64.97
2018-10-06T06:21:21.160Z,64.78
2018-10-06T06:22:21.177Z,65.16
2018-10-06T06:23:21.193Z,65.64
2018-10-06T06:24:21.204Z,65.45
2018-10-06T06:25:21.219Z,65.07
2018-10-06T06:26:21.236Z,64.02
2018-10-06T06:27:21.254Z,64.31
2018-10-06T06:28:21.267Z,67.74
2018-10-06T06:29:21.283Z,67.26
2018-10-06T06:30:21.300Z,66.59
2018-10-06T06:31:21.397Z,66.50
2018-10-06T06:32:21.356Z,66.11
2018-10-06T06:33:21.348Z,65.64
2018-10-06T06:34:21.363Z,66.31
2018-10-06T06:35:21.378Z,66.69
2018-10-06T06:36:21.398Z,66.59
2018-10-06T06:37:21.411Z,65.26
2018-10-06T06:38:21.500Z,65.55
2018-10-06T06:39:21.443Z,65.55
2018-10-06T06:40:21.455Z,65.26
2018-10-06T06:41:21.474Z,65.73
2018-10-06T06:42:21.489Z,65.07
2018-10-06T06:43:21.509Z,64.97
2018-10-06T06:44:21.652Z,64.69
2018-10-06T06:45:21.536Z,64.59
2018-10-06T06:46:21.552Z,64.21
2018-10-06T06:47:21.566Z,64.50
2018-10-06T06:48:21.582Z,64.31
2018-10-06T06:49:21.599Z,64.12
2018-10-06T06:50:21.615Z,62.97
2018-10-06T06:51:21.634Z,63.26
2018-10-06T06:52:21.647Z,62.62
2018-10-06T06:53:21.662Z,62.97
2018-10-06T06:54:21.679Z,64.78
2018-10-06T06:55:21.695Z,65.26
2018-10-06T06:56:21.712Z,65.26
2018-10-06T06:57:21.727Z,65.07
2018-10-06T06:58:21.743Z,64.59
2018-10-06T06:59:21.758Z,64.78
2018-10-06T07:00:21.777Z,65.36
2018-10-06T07:01:21.789Z,65.48
2018-10-06T07:02:21.808Z,66.24
2018-10-06T07:03:21.823Z,66.72
2018-10-06T07:04:21.839Z,66.63
2018-10-06T07:05:21.851Z,66.50
2018-10-06T07:06:21.870Z,67.48
2018-10-06T07:07:21.887Z,66.53
2018-10-06T07:08:21.902Z,67.10
2018-10-06T07:09:21.918Z,66.91
2018-10-06T07:10:21.935Z,66.72
2018-10-06T07:11:21.948Z,66.02
2018-10-06T07:12:21.965Z,65.86
2018-10-06T07:13:21.982Z,66.02
2018-10-06T07:14:21.996Z,66.72
2018-10-06T07:15:22.015Z,68.44
2018-10-06T07:16:22.026Z,68.24
2018-10-06T07:17:22.045Z,67.20
2018-10-06T07:18:22.125Z,66.15
2018-10-06T07:19:22.077Z,67.48
2018-10-06T07:20:22.091Z,66.82
2018-10-06T07:21:22.106Z,66.63
2018-10-06T07:22:22.125Z,66.63
2018-10-06T07:23:22.139Z,66.44
2018-10-06T07:24:22.154Z,66.40
2018-10-06T07:25:22.185Z,68.53
2018-10-06T07:26:22.188Z,68.21
2018-10-06T07:27:22.201Z,67.83
2018-10-06T07:28:22.252Z,68.30
2018-10-06T07:29:22.236Z,68.30
2018-10-06T07:30:22.252Z,69.17
2018-10-06T07:31:22.268Z,71.45
2018-10-06T07:32:22.282Z,69.68
2018-10-06T07:33:22.298Z,69.29
2018-10-06T07:34:22.316Z,68.24
2018-10-06T07:35:22.330Z,68.15
2018-10-06T07:36:22.345Z,68.05
2018-10-06T07:37:22.362Z,67.77
2018-10-06T07:38:22.380Z,68.05
2018-10-06T07:39:22.393Z,67.77
2018-10-06T07:40:22.407Z,66.91
2018-10-06T07:41:22.427Z,68.72
2018-10-06T07:42:22.443Z,67.58
2018-10-06T07:43:22.457Z,67.64
2018-10-06T07:44:22.470Z,67.74
2018-10-06T07:45:22.487Z,68.40
2018-10-06T07:46:22.505Z,68.78
2018-10-06T07:47:22.520Z,68.78
2018-10-06T07:48:22.534Z,68.78
2018-10-06T07:49:22.555Z,68.59
2018-10-06T07:50:22.572Z,67.93
2018-10-06T07:51:22.583Z,69.17
2018-10-06T07:52:22.600Z,68.69
2018-10-06T07:53:22.615Z,68.59
2018-10-06T07:54:22.630Z,68.69
2018-10-06T07:55:22.653Z,67.55
2018-10-06T07:56:22.663Z,67.64
2018-10-06T07:57:22.678Z,67.93
2018-10-06T07:58:22.697Z,67.55
2018-10-06T07:59:22.749Z,67.55
2018-10-06T08:00:22.724Z,68.15
2018-10-06T08:01:22.740Z,68.91
2018-10-06T08:02:22.756Z,68.59
2018-10-06T08:03:22.772Z,70.02
2018-10-06T08:04:22.786Z,69.54
2018-10-06T08:05:22.803Z,69.93
2018-10-06T08:06:22.855Z,69.54
2018-10-06T08:07:22.835Z,70.97
2018-10-06T08:08:22.852Z,71.07
2018-10-06T08:09:22.869Z,69.64
2018-10-06T08:10:22.883Z,69.39
2018-10-06T08:11:22.899Z,68.98
2018-10-06T08:12:22.912Z,69.48
2018-10-06T08:13:22.928Z,69.10
2018-10-06T08:14:22.945Z,68.44
2018-10-06T08:15:22.960Z,69.58
2018-10-06T08:16:22.980Z,68.72
2018-10-06T08:17:22.993Z,68.72
2018-10-06T08:18:23.008Z,68.44
2018-10-06T08:19:23.024Z,68.34
2018-10-06T08:20:23.038Z,67.58
2018-10-06T08:21:23.055Z,67.68
2018-10-06T08:22:23.072Z,67.77
2018-10-06T08:23:23.087Z,67.77
2018-10-06T08:24:23.102Z,66.05
2018-10-06T08:25:23.118Z,64.28
2018-10-06T08:26:23.135Z,65.33
2018-10-06T08:27:23.150Z,66.28
2018-10-06T08:28:23.167Z,66.47
2018-10-06T08:29:23.189Z,67.61
2018-10-06T08:30:23.199Z,66.66
2018-10-06T08:31:23.215Z,68.18
2018-10-06T08:32:23.232Z,69.33
2018-10-06T08:33:23.247Z,69.33
2018-10-06T08:34:23.263Z,67.46
2018-10-06T08:35:23.289Z,66.60
2018-10-06T08:36:23.294Z,65.17
2018-10-06T08:37:23.309Z,64.21
2018-10-06T08:38:23.325Z,63.45
2018-10-06T08:39:23.343Z,62.02
2018-10-06T08:40:23.358Z,62.88
2018-10-06T08:41:23.375Z,64.50
2018-10-06T08:42:23.390Z,64.97
2018-10-06T08:43:23.410Z,65.07
2018-10-06T08:44:23.426Z,62.59
2018-10-06T08:45:23.441Z,62.88
2018-10-06T08:46:23.456Z,63.54
2018-10-06T08:47:23.473Z,63.92
2018-10-06T08:48:23.492Z,62.75
2018-10-06T08:49:23.506Z,63.51
2018-10-06T08:50:23.521Z,64.09
2018-10-06T08:51:23.540Z,63.89
2018-10-06T08:52:23.552Z,63.45
2018-10-06T08:53:23.568Z,63.07
2018-10-06T08:54:23.586Z,62.02
2018-10-06T08:55:23.603Z,62.15
2018-10-06T08:56:23.645Z,63.03
2018-10-06T08:57:23.635Z,60.84
2018-10-06T08:58:23.653Z,60.84
2018-10-06T08:59:23.668Z,60.84
2018-10-06T09:00:23.685Z,58.93
2018-10-06T09:01:23.702Z,58.73
2018-10-06T09:02:23.717Z,58.83
2018-10-06T09:03:23.735Z,57.87
2018-10-06T09:04:23.802Z,58.33
2018-10-06T09:05:23.767Z,58.33
2018-10-06T09:06:23.786Z,58.51
2018-10-06T09:07:23.801Z,59.28
2018-10-06T09:08:23.816Z,60.24
2018-10-06T09:09:23.835Z,60.90
2018-10-06T09:10:23.849Z,60.24
2018-10-06T09:11:23.865Z,59.73
2018-10-06T09:12:23.882Z,60.58
2018-10-06T09:13:23.904Z,60.78
2018-10-06T09:14:23.915Z,61.54
2018-10-06T09:15:23.945Z,62.11
2018-10-06T09:16:23.948Z,61.25
2018-10-06T09:17:23.963Z,62.49
2018-10-06T09:18:23.978Z,60.02
2018-10-06T09:19:23.998Z,61.54
2018-10-06T09:20:24.016Z,62.15
2018-10-06T09:21:24.030Z,60.90
2018-10-06T09:22:24.047Z,59.28
2018-10-06T09:23:24.067Z,58.80
2018-10-06T09:24:24.082Z,59.31
2018-10-06T09:25:24.097Z,58.36
2018-10-06T09:26:24.114Z,58.16
2018-10-06T09:27:24.131Z,58.83
2018-10-06T09:28:24.151Z,57.02
2018-10-06T09:29:24.164Z,56.63
2018-10-06T09:30:24.184Z,58.23
2018-10-06T09:31:24.197Z,57.65
2018-10-06T09:32:24.214Z,58.90
2018-10-06T09:33:24.228Z,57.18
2018-10-06T09:34:24.247Z,58.42
2018-10-06T09:35:24.263Z,59.22
2018-10-06T09:36:24.281Z,58.45
2018-10-06T09:37:24.298Z,57.65
2018-10-06T09:38:24.311Z,55.00
2018-10-06T09:39:24.331Z,53.88
2018-10-06T09:40:24.346Z,51.91
2018-10-06T09:41:24.366Z,54.97
2018-10-06T09:42:24.410Z,58.09
2018-10-06T09:43:24.397Z,53.02
2018-10-06T09:44:24.414Z,50.74
2018-10-06T09:45:24.429Z,50.07
2018-10-06T09:46:24.449Z,49.43
2018-10-06T09:47:24.467Z,48.66
2018-10-06T09:48:24.485Z,48.64
2018-10-06T09:49:24.498Z,48.64
2018-10-06T09:50:24.517Z,49.02
2018-10-06T09:51:24.535Z,49.29
2018-10-06T09:52:24.557Z,51.27
2018-10-06T09:53:24.572Z,52.05
2018-10-06T09:54:24.587Z,54.91
2018-10-06T09:55:24.607Z,56.54
2018-10-06T09:56:24.623Z,56.16
2018-10-06T09:57:24.641Z,56.13
2018-10-06T09:58:24.657Z,56.60
2018-10-06T09:59:24.744Z,56.41
2018-10-06T10:00:24.695Z,56.70
2018-10-06T10:01:24.710Z,56.80
2018-10-06T10:02:24.728Z,57.65
2018-10-06T10:03:24.743Z,58.70
2018-10-06T10:04:24.813Z,58.07
2018-10-06T10:05:24.834Z,57.18
2018-10-06T10:06:24.797Z,57.68
2018-10-06T10:07:24.814Z,58.36
2018-10-06T10:08:24.830Z,56.92
2018-10-06T10:09:24.860Z,56.92
2018-10-06T10:10:24.867Z,56.18
2018-10-06T10:11:24.883Z,55.42
2018-10-06T10:12:24.959Z,55.80
2018-10-06T10:13:24.916Z,54.75
2018-10-06T10:14:24.935Z,54.37
2018-10-06T10:15:24.997Z,55.90
2018-10-06T10:16:24.969Z,54.37
2018-10-06T10:17:25.060Z,54.59
2018-10-06T10:18:25.265Z,53.03
2018-10-06T10:19:25.021Z,52.58
2018-10-06T10:20:25.041Z,52.48
2018-10-06T10:21:25.055Z,51.12
2018-10-06T10:22:25.298Z,52.46
2018-10-06T10:23:25.116Z,54.37
2018-10-06T10:24:25.109Z,52.94
2018-10-06T10:25:25.126Z,53.03
2018-10-06T10:26:25.145Z,53.70
2018-10-06T10:27:25.160Z,52.55
2018-10-06T10:28:25.205Z,53.03
2018-10-06T10:29:25.195Z,53.61
2018-10-06T10:30:25.214Z,52.65
2018-10-06T10:31:25.230Z,54.56
2018-10-06T10:32:25.248Z,53.63
2018-10-06T10:33:25.268Z,53.89
2018-10-06T10:34:25.318Z,54.59
2018-10-06T10:35:25.299Z,52.01
2018-10-06T10:36:25.321Z,51.34
2018-10-06T10:37:25.391Z,51.24
2018-10-06T10:38:25.350Z,50.74
2018-10-06T10:39:25.467Z,50.38
2018-10-06T10:40:25.386Z,50.38
2018-10-06T10:41:25.404Z,49.62
2018-10-06T10:42:25.420Z,51.15
2018-10-06T10:43:25.440Z,52.17
2018-10-06T10:44:25.536Z,53.03
2018-10-06T10:45:25.475Z,51.70
2018-10-06T10:46:25.502Z,52.36
2018-10-06T10:47:25.510Z,53.22
2018-10-06T10:48:25.625Z,52.39
2018-10-06T10:49:25.565Z,51.24
2018-10-06T10:50:25.565Z,51.05
2018-10-06T10:51:25.583Z,51.53
2018-10-06T10:52:25.596Z,51.91
2018-10-06T10:53:25.617Z,52.48
2018-10-06T10:54:25.781Z,52.48
2018-10-06T10:55:25.707Z,51.34
2018-10-06T10:56:25.671Z,51.81
2018-10-06T10:57:25.683Z,51.91
2018-10-06T10:58:25.704Z,51.72
2018-10-06T10:59:25.889Z,52.67
2018-10-06T11:00:25.739Z,52.70
2018-10-06T11:01:25.757Z,50.70
2018-10-06T11:02:25.772Z,51.24
2018-10-06T11:03:25.794Z,53.16
2018-10-06T11:04:25.809Z,53.82
2018-10-06T11:05:25.826Z,54.21
2018-10-06T11:06:25.844Z,52.58
2018-10-06T11:07:25.871Z,52.61
2018-10-06T11:08:25.881Z,51.36
2018-10-06T11:09:25.896Z,49.55
2018-10-06T11:10:25.920Z,49.93
2018-10-06T11:11:26.016Z,50.89
2018-10-06T11:12:25.952Z,51.65
2018-10-06T11:13:25.973Z,51.36
2018-10-06T11:14:25.987Z,52.22
2018-10-06T11:15:26.006Z,52.70
2018-10-06T11:16:26.023Z,52.13
2018-10-06T11:17:26.043Z,52.42
2018-10-06T11:18:26.059Z,52.77
2018-10-06T11:19:26.079Z,52.67
2018-10-06T11:20:26.096Z,54.11
2018-10-06T11:21:26.113Z,54.30
2018-10-06T11:22:26.138Z,55.16
2018-10-06T11:23:26.149Z,55.23
2018-10-06T11:24:26.167Z,54.49
2018-10-06T11:25:26.185Z,54.21
2018-10-06T11:26:26.203Z,54.59
2018-10-06T11:27:26.224Z,54.21
2018-10-06T11:28:26.239Z,54.02
2018-10-06T11:29:26.257Z,54.88
2018-10-06T11:30:26.276Z,54.30
2018-10-06T11:31:26.296Z,55.26
2018-10-06T11:32:26.314Z,54.56
2018-10-06T11:33:26.336Z,54.47
2018-10-06T11:34:26.349Z,55.32
2018-10-06T11:35:26.370Z,55.71
2018-10-06T11:36:26.383Z,56.67
2018-10-06T11:37:26.508Z,56.98
2018-10-06T11:38:26.420Z,56.02
2018-10-06T11:39:26.450Z,55.74
2018-10-06T11:40:26.457Z,55.54
2018-10-06T11:41:26.473Z,55.74
2018-10-06T11:42:26.492Z,54.59
2018-10-06T11:43:26.511Z,51.24
2018-10-06T11:44:26.528Z,51.15
2018-10-06T11:45:26.551Z,52.87
2018-10-06T11:46:26.565Z,55.16
2018-10-06T11:47:26.588Z,56.79
2018-10-06T11:48:26.600Z,56.76
2018-10-06T11:49:26.618Z,57.71
2018-10-06T11:50:26.746Z,57.75
2018-10-06T11:51:26.655Z,56.50
2018-10-06T11:52:26.671Z,56.60
2018-10-06T11:53:26.691Z,57.17
2018-10-06T11:54:26.710Z,56.88
2018-10-06T11:55:26.737Z,56.53
2018-10-06T11:56:26.749Z,55.16
2018-10-06T11:57:26.764Z,55.64
2018-10-06T11:58:26.784Z,56.69
2018-10-06T11:59:26.801Z,57.46
2018-10-06T12:00:26.929Z,57.75
2018-10-06T12:01:26.838Z,58.32
2018-10-06T12:02:26.855Z,57.26
2018-10-06T12:03:26.875Z,56.69
2018-10-06T12:04:26.892Z,56.24
2018-10-06T12:05:26.913Z,56.91
2018-10-06T12:06:26.930Z,56.88
2018-10-06T12:07:26.946Z,56.98
2018-10-06T12:08:26.966Z,58.48
2018-10-06T12:09:26.983Z,60.17
2018-10-06T12:10:27.006Z,61.98
2018-10-06T12:11:27.021Z,61.69
2018-10-06T12:12:27.050Z,60.64
2018-10-06T12:13:27.056Z,60.96
2018-10-06T12:14:27.076Z,60.58
2018-10-06T12:15:27.094Z,59.53
2018-10-06T12:16:27.112Z,59.24
2018-10-06T12:17:27.128Z,59.69
2018-10-06T12:18:27.148Z,59.98
2018-10-06T12:19:27.167Z,61.54
2018-10-06T12:20:27.246Z,60.27
2018-10-06T12:21:27.202Z,60.20
2018-10-06T12:22:27.220Z,60.27
2018-10-06T12:23:27.240Z,60.84
2018-10-06T12:24:27.260Z,60.84
2018-10-06T12:25:27.274Z,61.69
2018-10-06T12:26:27.293Z,61.79
2018-10-06T12:27:27.311Z,61.03
2018-10-06T12:28:27.329Z,61.22
2018-10-06T12:29:27.348Z,61.98
2018-10-06T12:30:27.364Z,61.51
2018-10-06T12:31:27.383Z,61.13
2018-10-06T12:32:27.401Z,61.69
2018-10-06T12:33:27.419Z,61.79
2018-10-06T12:34:27.436Z,61.72
2018-10-06T12:35:27.557Z,61.25
2018-10-06T12:36:27.477Z,60.74
2018-10-06T12:37:27.491Z,60.74
2018-10-06T12:38:27.508Z,60.64
2018-10-06T12:39:27.530Z,61.79
2018-10-06T12:40:27.546Z,62.62
2018-10-06T12:41:27.562Z,63.42
2018-10-06T12:42:27.578Z,64.56
2018-10-06T12:43:27.700Z,63.13
2018-10-06T12:44:27.616Z,63.32
2018-10-06T12:45:27.636Z,62.49
2018-10-06T12:46:27.652Z,62.46
2018-10-06T12:47:27.671Z,61.60
2018-10-06T12:48:27.789Z,61.51
2018-10-06T12:49:27.706Z,63.13
2018-10-06T12:50:27.726Z,63.99
2018-10-06T12:51:27.756Z,62.37
2018-10-06T12:52:27.762Z,62.46